KBNW/BNW METAR and TAF weather

Enter ICAO airport designator
Station Type Date Time Source
KBNW METAR 2020/08/10 18:15 UTC NOAA

KBNW 101815Z AUTO 05020G28KT 10SM FEW060 SCT075 SCT090 18/16 A2987 RMK AO2


Station Type Date Time Source
KBNW Decoded METAR 2020/08/10 18:15 UTC NOAA

Boone Municipal, IA, United States (KBNW) 42-03N 093-51W
Aug 10, 2020 - 02:15 PM EDT / 2020.08.10 1815 UTC
Wind: from the NE (050 degrees) at 23 MPH (20 KT) gusting to 32 MPH (28 KT):0
Visibility: 10 mile(s):0
Sky conditions: partly cloudy
Temperature: 64 F (18 C)
Dew Point: 60 F (16 C)
Relative Humidity: 88%
Pressure (altimeter): 29.87 in. Hg (1011 hPa)
ob: KBNW 101815Z AUTO 05020G28KT 10SM FEW060 SCT075 SCT090 18/16 A2987 RMK AO2
cycle: 18

Station Type Date Time Source
KBNW TAF UTC NOAA

Error!

Example: see airport list